Time;durP1;ratioP1;P1;durP2;ratioP2;P2;SDS_P1;SDS_P2;PMS_P1;PMS_P2;Temp;Humidity;BMP_temperature;BMP_pressure;BME280_temperature;BME280_humidity;BME280_pressure;Samples;Min_cycle;Max_cycle;Signal;HPM_P1;HPM_P2
2023/12/16 00:00:57;;;;;;;37.30;20.10;;;;;;;3.16;100.00;102013.91;133825;1308;22456;-80
2023/12/16 00:03:59;;;;;;;35.60;19.40;;;;;;;3.17;100.00;102010.20;133868;1302;23173;-80
2023/12/16 00:07:05;;;;;;;33.80;19.50;;;;;;;3.13;100.00;102006.30;133794;1308;22314;-80
2023/12/16 00:10:07;;;;;;;32.70;18.80;;;;;;;3.12;100.00;102010.20;133810;1301;22292;-81
2023/12/16 00:13:13;;;;;;;27.20;17.10;;;;;;;3.11;100.00;102012.17;133867;1307;22431;-80
2023/12/16 00:16:18;;;;;;;33.20;17.50;;;;;;;3.10;100.00;102018.20;133817;1301;22467;-80
2023/12/16 00:19:22;;;;;;;34.40;18.40;;;;;;;3.08;100.00;102010.05;133854;1302;22368;-81
2023/12/16 00:22:22;;;;;;;36.60;18.60;;;;;;;3.07;100.00;102014.49;133853;1308;22369;-81
2023/12/16 00:25:23;;;;;;;;;;;;;;;3.06;100.00;102011.38;133869;1308;22490;-80
2023/12/16 00:28:24;;;;;;;36.10;19.30;;;;;;;3.08;100.00;102015.67;133856;1301;22467;-81
2023/12/16 00:31:25;;;;;;;;;;;;;;;3.08;100.00;102011.29;133877;1302;22469;-80
2023/12/16 00:34:46;;;;;;;33.40;19.10;;;;;;;3.09;100.00;102016.81;133864;1302;23047;-80
2023/12/16 00:37:50;;;;;;;35.90;20.10;;;;;;;3.11;100.00;102017.45;133866;1301;22567;-80
2023/12/16 00:40:50;;;;;;;40.50;20.10;;;;;;;3.12;100.00;102014.92;133850;1307;22253;-80
2023/12/16 00:43:54;;;;;;;34.60;19.40;;;;;;;3.15;100.00;102016.73;133827;1307;22436;-80
2023/12/16 00:46:58;;;;;;;35.60;20.40;;;;;;;3.17;100.00;102019.46;133840;1308;22461;-79
2023/12/16 00:49:59;;;;;;;35.60;20.20;;;;;;;3.19;100.00;102019.55;133841;1301;22421;-80
2023/12/16 00:53:08;;;;;;;41.70;20.50;;;;;;;3.21;100.00;102016.84;133893;1308;22429;-81
2023/12/16 00:56:09;;;;;;;38.30;20.40;;;;;;;3.22;100.00;102014.30;133856;1298;21980;-81
2023/12/16 00:59:10;;;;;;;32.40;19.50;;;;;;;3.23;100.00;102019.65;133811;1308;22392;-81
2023/12/16 01:02:11;;;;;;;34.00;19.30;;;;;;;3.24;100.00;102022.95;133802;1301;22917;-81
2023/12/16 01:05:36;;;;;;;32.70;19.60;;;;;;;3.26;100.00;102027.25;133841;1304;23323;-80
2023/12/16 01:08:48;;;;;;;35.40;19.80;;;;;;;3.27;100.00;102030.34;133839;1301;22293;-80
2023/12/16 01:11:52;;;;;;;32.20;19.40;;;;;;;3.28;100.00;102030.61;133867;1301;22392;-81
2023/12/16 01:14:53;;;;;;;36.50;20.80;;;;;;;3.29;100.00;102035.65;133857;1308;22370;-80
2023/12/16 01:17:57;;;;;;;33.70;19.20;;;;;;;3.31;100.00;102040.84;133862;1308;23053;-81
2023/12/16 01:21:15;;;;;;;35.10;20.30;;;;;;;3.32;100.00;102043.05;133879;1302;23090;-81
2023/12/16 01:24:16;;;;;;;31.20;18.30;;;;;;;3.32;100.00;102042.52;133884;1298;22402;-81
2023/12/16 01:27:20;;;;;;;;;;;;;;;3.33;100.00;102043.53;133872;1304;22444;-80
2023/12/16 01:30:24;;;;;;;33.60;19.20;;;;;;;3.33;100.00;102039.16;133839;1308;22890;-80
2023/12/16 01:33:59;;;;;;;;;;;;;;;;;;;;;
2023/12/16 01:37:07;;;;;;;39.00;19.00;;;;;;;3.33;100.00;102047.20;133861;1301;22906;-80
2023/12/16 01:40:31;;;;;;;35.30;19.00;;;;;;;3.33;100.00;102055.09;133857;1301;22425;-81
2023/12/16 01:43:32;;;;;;;31.40;17.40;;;;;;;3.33;100.00;102050.71;133838;1305;22723;-80
2023/12/16 01:46:35;;;;;;;33.90;18.40;;;;;;;3.32;100.00;102045.30;133837;1302;22451;-80
2023/12/16 01:49:59;;;;;;;31.80;18.20;;;;;;;3.32;100.00;102037.59;133895;1292;23128;-80
2023/12/16 01:53:05;;;;;;;36.50;18.30;;;;;;;3.33;100.00;102034.23;133875;1307;23082;-81
2023/12/16 01:56:38;;;;;;;32.80;18.10;;;;;;;3.34;100.00;102033.84;133862;1301;22406;-81
2023/12/16 02:00:03;;;;;;;37.70;19.00;;;;;;;3.35;100.00;102030.82;133854;1304;23620;-80
2023/12/16 02:03:18;;;;;;;38.80;19.20;;;;;;;3.36;100.00;102035.33;133873;1307;22219;-81
2023/12/16 02:06:39;;;;;;;37.60;17.50;;;;;;;3.37;100.00;102043.14;133860;1304;22397;-81
2023/12/16 02:09:40;;;;;;;31.50;18.90;;;;;;;3.35;100.00;102041.47;133850;1301;22366;-81
2023/12/16 02:12:43;;;;;;;34.20;18.50;;;;;;;3.37;100.00;102058.73;133835;1302;22414;-80
2023/12/16 02:15:43;;;;;;;34.90;18.10;;;;;;;3.37;100.00;102060.80;133864;1307;22288;-81
2023/12/16 02:18:49;;;;;;;35.90;17.50;;;;;;;3.36;100.00;102060.66;133854;1301;22400;-80
2023/12/16 02:21:55;;;;;;;32.70;17.10;;;;;;;3.35;100.00;102069.30;133724;1301;22420;-80
2023/12/16 02:24:57;;;;;;;30.30;16.20;;;;;;;3.34;100.00;102066.39;133871;1307;22864;-80
2023/12/16 02:27:57;;;;;;;29.50;17.00;;;;;;;3.34;100.00;102060.63;133695;1307;22249;-80
2023/12/16 02:30:58;;;;;;;28.10;16.40;;;;;;;3.32;100.00;102055.11;133849;1301;22386;-81
2023/12/16 02:34:23;;;;;;;32.30;16.70;;;;;;;3.29;100.00;102068.34;133877;1307;23193;-80
2023/12/16 02:38:07;;;;;;;30.70;15.50;;;;;;;3.29;100.00;102067.50;133818;1307;22450;-80
2023/12/16 02:41:10;;;;;;;32.10;15.80;;;;;;;3.29;100.00;102068.73;133829;1301;23184;-80
2023/12/16 02:44:11;;;;;;;34.10;16.90;;;;;;;3.30;100.00;102067.82;133874;1295;22364;-80
2023/12/16 02:47:17;;;;;;;;;;;;;;;3.29;100.00;102067.48;133899;1302;23263;-81
2023/12/16 02:50:18;;;;;;;27.00;16.10;;;;;;;3.28;100.00;102067.52;133899;1301;22382;-80
2023/12/16 02:53:31;;;;;;;38.70;17.20;;;;;;;3.29;100.00;102068.36;133844;1307;22560;-81
2023/12/16 02:56:41;;;;;;;32.30;16.40;;;;;;;3.29;100.00;102061.91;133859;1307;22271;-81
2023/12/16 02:59:45;;;;;;;34.50;16.20;;;;;;;3.29;100.00;102063.65;133865;1307;22371;-80
2023/12/16 03:02:46;;;;;;;30.90;16.10;;;;;;;3.29;100.00;102065.38;133830;1295;22393;-80
2023/12/16 03:05:49;;;;;;;;;;;;;;;3.30;100.00;102062.02;133867;1307;22478;-81
2023/12/16 03:08:53;;;;;;;36.00;16.40;;;;;;;3.32;100.00;102062.27;133862;1307;22434;-80
2023/12/16 03:12:11;;;;;;;33.80;17.00;;;;;;;3.33;100.00;102061.55;133864;1301;23141;-81
2023/12/16 03:15:26;;;;;;;36.80;16.60;;;;;;;3.33;100.00;102062.22;133868;1307;22363;-81
2023/12/16 03:18:39;;;;;;;36.40;16.80;;;;;;;3.34;100.00;102061.12;133876;1308;23344;-80
2023/12/16 03:21:39;;;;;;;31.50;16.30;;;;;;;3.35;100.00;102065.11;133857;1305;23174;-81
2023/12/16 03:25:00;;;;;;;;;;;;;;;3.36;100.00;102069.42;133906;1308;22447;-80
2023/12/16 03:28:04;;;;;;;27.00;14.70;;;;;;;3.39;100.00;102064.22;133871;1308;23401;-80
2023/12/16 03:31:05;;;;;;;29.90;15.10;;;;;;;3.41;100.00;102058.54;133865;1308;22215;-80
2023/12/16 03:34:08;;;;;;;29.90;15.50;;;;;;;3.42;100.00;102058.66;133872;1301;22491;-80
2023/12/16 03:37:15;;;;;;;31.20;15.40;;;;;;;3.44;100.00;102063.98;133879;1301;23245;-80
2023/12/16 03:40:15;;;;;;;32.40;14.90;;;;;;;3.45;100.00;102066.02;133921;1301;22465;-80
2023/12/16 03:43:19;;;;;;;32.00;15.90;;;;;;;3.46;100.00;102077.52;133909;1308;22532;-81
2023/12/16 03:46:22;;;;;;;;;;;;;;;3.46;100.00;102083.46;133744;1301;23206;-80
2023/12/16 03:49:29;;;;;;;36.70;14.60;;;;;;;3.47;100.00;102087.28;133889;1301;22978;-80
2023/12/16 03:52:48;;;;;;;39.70;15.40;;;;;;;3.48;100.00;102086.20;133887;1301;22511;-80
2023/12/16 03:55:49;;;;;;;30.30;14.70;;;;;;;3.50;100.00;102090.32;133879;1301;22340;-80
2023/12/16 03:58:57;;;;;;;;;;;;;;;3.51;100.00;102092.69;133878;1301;22464;-80
2023/12/16 04:02:01;;;;;;;;;;;;;;;3.51;100.00;102095.11;133851;1301;22465;-80
2023/12/16 04:05:44;;;;;;;;;;;;;;;;;;;;;
2023/12/16 04:08:46;;;;;;;34.60;15.40;;;;;;;3.54;100.00;102095.69;133771;1301;22247;-80
2023/12/16 04:11:49;;;;;;;;;;;;;;;3.56;100.00;102093.48;133873;1308;22458;-80
2023/12/16 04:15:06;;;;;;;;;;;;;;;;;;;;;
2023/12/16 04:18:09;;;;;;;37.90;15.80;;;;;;;3.58;100.00;102091.46;133860;1304;23787;-80
2023/12/16 04:21:10;;;;;;;28.50;15.50;;;;;;;3.60;100.00;102085.63;133877;1308;22233;-80
2023/12/16 04:24:16;;;;;;;38.00;17.90;;;;;;;3.61;100.00;102087.71;133898;1301;22504;-80
2023/12/16 04:27:20;;;;;;;36.50;18.00;;;;;;;3.61;100.00;102088.56;133873;1308;22422;-80
2023/12/16 04:30:23;;;;;;;41.50;20.00;;;;;;;3.63;100.00;102088.98;133888;1308;22367;-80
2023/12/16 04:33:24;;;;;;;37.00;17.80;;;;;;;3.65;100.00;102093.98;133891;1302;23317;-80
2023/12/16 04:36:31;;;;;;;42.20;19.30;;;;;;;3.66;100.00;102106.53;133861;1301;22451;-80
2023/12/16 04:39:35;;;;;;;49.00;20.50;;;;;;;3.68;100.00;102110.60;133885;1307;22374;-80
2023/12/16 04:42:36;;;;;;;39.50;19.00;;;;;;;3.70;100.00;102115.79;133858;1293;22174;-80
2023/12/16 04:45:40;;;;;;;39.40;19.20;;;;;;;3.71;100.00;102125.70;133875;1302;22411;-80
2023/12/16 04:48:44;;;;;;;41.70;20.70;;;;;;;3.72;100.00;102126.19;133854;1308;22947;-81
2023/12/16 04:51:48;;;;;;;42.00;20.20;;;;;;;3.73;100.00;102123.84;133887;1301;22346;-80
2023/12/16 04:54:52;;;;;;;41.10;20.30;;;;;;;3.75;100.00;102125.88;133891;1308;22540;-80
2023/12/16 04:57:55;;;;;;;38.70;19.10;;;;;;;3.76;100.00;102122.32;133870;1300;22441;-80
2023/12/16 05:00:58;;;;;;;41.10;19.50;;;;;;;3.78;100.00;102122.93;133888;1307;22391;-80
2023/12/16 05:04:39;;;;;;;34.90;17.70;;;;;;;3.78;100.00;102119.55;133840;1308;22389;-80
2023/12/16 05:08:19;;;;;;;33.40;16.00;;;;;;;3.80;100.00;102114.05;133896;1307;22385;-80
2023/12/16 05:11:23;;;;;;;42.50;19.10;;;;;;;3.81;100.00;102123.13;133894;1307;22255;-80
2023/12/16 05:18:47;;;;;;;41.80;20.30;;;;;;;3.82;100.00;102131.48;131411;1308;3157170;-80
2023/12/16 05:26:28;;;;;;;;;;;;;;;;;;;;;
2023/12/16 05:30:03;;;;;;;33.10;17.80;;;;;;;3.86;100.00;102117.80;133870;1301;23080;-80
2023/12/16 05:33:14;;;;;;;34.50;18.60;;;;;;;3.87;100.00;102114.96;133859;1301;22479;-81
2023/12/16 05:36:15;;;;;;;37.50;18.10;;;;;;;3.88;100.00;102120.66;133901;1301;23193;-80
2023/12/16 05:39:15;;;;;;;41.30;18.10;;;;;;;3.90;100.00;102124.27;133945;1301;22257;-80
2023/12/16 05:42:57;;;;;;;;;;;;;;;3.91;100.00;102126.11;133908;1304;22524;-80
2023/12/16 05:46:00;;;;;;;39.50;16.50;;;;;;;3.93;100.00;102130.09;133883;1307;22378;-80
2023/12/16 05:49:11;;;;;;;;;;;;;;;;;;;;;
2023/12/16 05:52:29;;;;;;;33.00;16.30;;;;;;;3.95;100.00;102145.93;133818;1308;22268;-80
2023/12/16 05:55:32;;;;;;;33.90;15.20;;;;;;;3.95;100.00;102144.68;133869;1307;22416;-80
2023/12/16 05:58:33;;;;;;;33.10;15.90;;;;;;;3.96;100.00;102144.09;133885;1307;22241;-80
2023/12/16 06:01:36;;;;;;;28.50;14.80;;;;;;;3.96;100.00;102148.45;133883;1301;23218;-80
2023/12/16 06:04:40;;;;;;;;;;;;;;;3.97;100.00;102150.88;133918;1301;23297;-81
2023/12/16 06:07:44;;;;;;;26.00;13.50;;;;;;;3.98;100.00;102151.52;133920;1301;22165;-81
2023/12/16 06:10:44;;;;;;;32.80;15.10;;;;;;;3.99;100.00;102153.41;133881;1301;23429;-80
2023/12/16 06:13:59;;;;;;;25.80;15.50;;;;;;;4.00;100.00;102151.79;133895;1292;22580;-80
2023/12/16 06:17:23;;;;;;;27.40;16.00;;;;;;;4.00;100.00;102150.73;133912;1300;22455;-81
2023/12/16 06:20:27;;;;;;;27.20;15.20;;;;;;;4.00;100.00;102149.34;133873;1307;23277;-80
2023/12/16 06:23:33;;;;;;;38.30;17.70;;;;;;;3.99;100.00;102147.09;133898;1300;22493;-80
2023/12/16 06:26:40;;;;;;;34.90;17.10;;;;;;;4.01;100.00;102152.80;133919;1307;22503;-81
2023/12/16 06:29:43;;;;;;;34.10;17.70;;;;;;;4.01;100.00;102152.42;133886;1304;22186;-80
2023/12/16 06:33:45;;;;;;;30.10;16.40;;;;;;;4.03;100.00;102153.39;133883;1301;22294;-81
2023/12/16 06:36:45;;;;;;;32.70;18.10;;;;;;;4.04;100.00;102158.23;133834;1307;23228;-80
2023/12/16 06:40:31;;;;;;;29.20;16.30;;;;;;;4.04;100.00;102159.98;133888;1301;22467;-80
2023/12/16 06:43:35;;;;;;;39.50;20.00;;;;;;;4.06;100.00;102162.02;133911;1301;23286;-80
2023/12/16 06:46:38;;;;;;;33.70;17.70;;;;;;;4.06;100.00;102157.27;133915;1301;22445;-81
2023/12/16 06:49:42;;;;;;;30.30;17.30;;;;;;;4.07;100.00;102158.78;133886;1301;22198;-80
2023/12/16 06:52:46;;;;;;;33.80;17.20;;;;;;;4.08;100.00;102169.29;133893;1304;22303;-80
2023/12/16 06:55:53;;;;;;;31.10;17.30;;;;;;;4.09;100.00;102177.11;133877;1304;22381;-80
2023/12/16 06:58:56;;;;;;;32.40;16.70;;;;;;;4.10;100.00;102179.54;133861;1304;22429;-79
2023/12/16 07:01:57;;;;;;;29.80;17.60;;;;;;;4.10;100.00;102177.26;133853;1307;23202;-81
2023/12/16 07:05:15;;;;;;;;;;;;;;;;;;;;;
2023/12/16 07:09:17;;;;;;;;;;;;;;;;;;;;;
2023/12/16 07:12:26;;;;;;;36.10;19.00;;;;;;;4.12;100.00;102185.70;133621;1306;22463;-79
2023/12/16 07:15:38;;;;;;;35.00;19.00;;;;;;;4.14;100.00;102187.03;133848;1307;22213;-78
2023/12/16 07:18:39;;;;;;;34.00;18.90;;;;;;;4.16;100.00;102185.02;133871;1307;22288;-78
2023/12/16 07:21:43;;;;;;;;;;;;;;;4.17;100.00;102188.48;133835;1301;22466;-78
2023/12/16 07:24:51;;;;;;;31.50;15.80;;;;;;;4.18;100.00;102195.42;133846;1301;23281;-78
2023/12/16 07:28:49;;;;;;;;;;;;;;;;;;;;;
2023/12/16 07:32:15;;;;;;;38.10;17.10;;;;;;;4.22;100.00;102190.30;133760;1302;22393;-80
2023/12/16 07:35:29;;;;;;;32.60;16.70;;;;;;;4.24;100.00;102190.55;133871;1293;23289;-81
2023/12/16 07:39:05;;;;;;;;;;;;;;;;;;;;;
2023/12/16 07:42:34;;;;;;;31.10;17.00;;;;;;;4.27;100.00;102196.34;133817;1301;22473;-81
2023/12/16 07:45:53;;;;;;;31.80;17.80;;;;;;;4.29;100.00;102197.64;133790;1301;23170;-81
2023/12/16 07:48:55;;;;;;;34.20;18.00;;;;;;;4.33;100.00;102200.27;133856;1300;22388;-81
2023/12/16 07:51:57;;;;;;;33.50;16.60;;;;;;;4.34;100.00;102201.42;133803;1301;22463;-81
2023/12/16 07:55:14;;;;;;;34.10;18.40;;;;;;;4.36;100.00;102204.86;133845;1301;22925;-80
2023/12/16 07:58:15;;;;;;;37.10;18.30;;;;;;;4.37;100.00;102206.39;133841;1302;22272;-81
2023/12/16 08:01:18;;;;;;;36.40;18.90;;;;;;;4.36;100.00;102213.62;133834;1301;22350;-80
2023/12/16 08:04:23;;;;;;;33.00;19.20;;;;;;;4.35;100.00;102212.27;133806;1301;23209;-76
2023/12/16 08:07:24;;;;;;;38.00;20.50;;;;;;;4.34;100.00;102217.23;133878;1301;22426;-85
2023/12/16 08:10:29;;;;;;;39.90;20.90;;;;;;;4.34;100.00;102226.66;133853;1301;22962;-79
2023/12/16 08:13:39;;;;;;;45.50;22.10;;;;;;;4.36;100.00;102233.61;133773;1308;22488;-83
2023/12/16 08:16:40;;;;;;;40.00;21.20;;;;;;;4.38;100.00;102227.00;133842;1301;22382;-81
2023/12/16 08:19:43;;;;;;;41.70;22.10;;;;;;;4.39;100.00;102221.16;133683;1301;22474;-84
2023/12/16 08:22:47;;;;;;;40.90;21.60;;;;;;;4.42;100.00;102216.48;133678;1307;22463;-85
2023/12/16 08:27:16;;;;;;;35.80;20.00;;;;;;;4.43;100.00;102216.41;133864;1308;22484;-79
2023/12/16 08:30:24;;;;;;;;;;;;;;;;;;;;;
2023/12/16 08:33:36;;;;;;;34.80;20.70;;;;;;;4.44;100.00;102215.48;133824;1308;22462;-78
2023/12/16 08:36:56;;;;;;;41.10;22.00;;;;;;;4.45;100.00;102215.27;133854;1302;22428;-78
2023/12/16 08:40:20;;;;;;;40.40;20.20;;;;;;;4.45;100.00;102217.22;133819;1308;22445;-78
2023/12/16 08:43:44;;;;;;;45.00;21.20;;;;;;;4.45;100.00;102223.35;133795;1301;22479;-80
2023/12/16 08:47:33;;;;;;;41.50;22.00;;;;;;;4.45;100.00;102224.57;133822;1301;22389;-80
2023/12/16 08:50:34;;;;;;;40.80;22.20;;;;;;;4.48;100.00;102219.30;133810;1301;22357;-79
2023/12/16 08:53:40;;;;;;;43.80;23.10;;;;;;;4.53;100.00;102214.37;133812;1304;23125;-79
2023/12/16 08:56:44;;;;;;;42.40;23.90;;;;;;;4.57;100.00;102222.43;133837;1301;22240;-78
2023/12/16 08:59:47;;;;;;;;;;;;;;;4.60;100.00;102222.44;133877;1308;22459;-79
2023/12/16 09:03:20;;;;;;;;;;;;;;;;;;;;;
2023/12/16 09:06:30;;;;;;;43.30;22.70;;;;;;;4.69;100.00;102224.97;133842;1308;22418;-80
2023/12/16 09:09:51;;;;;;;52.30;24.40;;;;;;;4.79;100.00;102225.52;133841;1301;22395;-81
2023/12/16 09:13:15;;;;;;;44.80;23.30;;;;;;;4.90;100.00;102221.45;133818;1301;22367;-80
2023/12/16 09:16:16;;;;;;;41.00;21.90;;;;;;;4.92;100.00;102218.69;133824;1290;22271;-80
2023/12/16 09:19:17;;;;;;;;;;;;;;;4.94;100.00;102225.77;133863;1300;22477;-80
2023/12/16 09:22:41;;;;;;;;;;;;;;;4.95;100.00;102232.93;133770;1301;22483;-79
2023/12/16 09:25:42;;;;;;;46.00;22.20;;;;;;;4.95;100.00;102229.59;133863;1301;23071;-76
2023/12/16 09:28:43;;;;;;;41.80;22.70;;;;;;;4.93;100.00;102230.20;133839;1301;22253;-78
2023/12/16 09:31:47;;;;;;;41.40;23.10;;;;;;;4.96;100.00;102227.27;133792;1301;22576;-78
2023/12/16 09:34:49;;;;;;;49.40;25.00;;;;;;;4.94;100.00;102222.95;133754;1301;22373;-78
2023/12/16 09:37:50;;;;;;;47.90;23.80;;;;;;;4.93;100.00;102222.85;133801;1301;22388;-79
2023/12/16 09:40:51;;;;;;;46.50;22.80;;;;;;;4.94;100.00;102218.41;133798;1302;22384;-79
2023/12/16 09:43:56;;;;;;;51.40;23.40;;;;;;;4.95;100.00;102217.67;133809;1301;23104;-79
2023/12/16 09:47:08;;;;;;;50.50;23.70;;;;;;;4.97;100.00;102219.48;133802;1304;22496;-79
2023/12/16 09:50:10;;;;;;;45.70;22.60;;;;;;;5.02;100.00;102219.95;133838;1302;22557;-80
2023/12/16 09:53:14;;;;;;;47.50;22.50;;;;;;;5.03;100.00;102224.77;133760;1301;22369;-80
2023/12/16 09:56:19;;;;;;;45.30;22.20;;;;;;;5.02;100.00;102231.86;133693;1308;22280;-79
2023/12/16 09:59:23;;;;;;;47.60;22.40;;;;;;;5.02;100.00;102231.34;133681;1301;22496;-79
2023/12/16 10:02:56;;;;;;;49.20;23.00;;;;;;;5.04;100.00;102226.49;133832;1301;22496;-80
2023/12/16 10:06:03;;;;;;;47.70;22.80;;;;;;;5.05;100.00;102226.95;133788;1305;22387;-79
2023/12/16 10:09:10;;;;;;;49.00;22.90;;;;;;;5.07;100.00;102225.28;133780;1301;22482;-80
2023/12/16 10:12:14;;;;;;;43.20;22.60;;;;;;;5.10;100.00;102224.06;133801;1302;23118;-79
2023/12/16 10:15:36;;;;;;;40.00;20.60;;;;;;;5.12;100.00;102223.95;133798;1301;22377;-79
2023/12/16 10:18:52;;;;;;;;;;;;;;;;;;;;;
2023/12/16 10:22:03;;;;;;;40.40;20.00;;;;;;;5.17;100.00;102215.45;133796;1301;23543;-81
2023/12/16 10:25:08;;;;;;;;;;;;;;;5.21;100.00;102214.55;133839;1301;22472;-81
2023/12/16 10:28:12;;;;;;;41.40;20.80;;;;;;;5.24;100.00;102206.69;133794;1301;22476;-80
2023/12/16 10:31:17;;;;;;;40.30;20.40;;;;;;;5.27;100.00;102206.67;133710;1291;22441;-80
2023/12/16 10:34:31;;;;;;;48.80;22.00;;;;;;;5.31;100.00;102206.13;133790;1301;23192;-81
2023/12/16 10:37:49;;;;;;;48.20;22.00;;;;;;;5.34;100.00;102204.88;133777;1301;22463;-81
2023/12/16 10:41:05;;;;;;;44.90;21.80;;;;;;;5.40;100.00;102205.98;133819;1301;22446;-82
2023/12/16 10:44:19;;;;;;;37.30;19.70;;;;;;;5.43;100.00;102206.37;133821;1301;22527;-83
2023/12/16 10:47:44;;;;;;;42.20;18.40;;;;;;;5.48;100.00;102208.20;133843;1307;23118;-82
2023/12/16 10:50:47;;;;;;;44.40;18.10;;;;;;;5.50;100.00;102197.55;133816;1301;22395;-82
2023/12/16 10:54:01;;;;;;;45.20;17.40;;;;;;;5.51;100.00;102192.41;133827;1301;22432;-83
2023/12/16 10:57:51;;;;;;;38.10;16.10;;;;;;;5.51;100.00;102190.82;133855;1301;22396;-79
2023/12/16 11:00:52;;;;;;;28.70;15.70;;;;;;;5.52;100.00;102190.25;133563;1301;23527;-79
2023/12/16 11:04:26;;;;;;;37.40;16.00;;;;;;;5.54;100.00;102187.86;133784;1301;23104;-80
2023/12/16 11:07:33;;;;;;;37.50;16.10;;;;;;;5.56;100.00;102188.81;133630;1301;22452;-80
2023/12/16 11:10:34;;;;;;;33.70;15.10;;;;;;;5.59;100.00;102190.73;133824;1307;23209;-80
2023/12/16 11:13:38;;;;;;;32.60;16.40;;;;;;;5.62;100.00;102192.49;133763;1307;23098;-80
2023/12/16 11:17:01;;;;;;;30.10;15.20;;;;;;;5.65;100.00;102182.55;133827;1301;23063;-79
2023/12/16 11:20:28;;;;;;;36.20;15.70;;;;;;;5.69;100.00;102176.86;133817;1302;23374;-79
2023/12/16 11:23:29;;;;;;;31.40;14.40;;;;;;;5.76;100.00;102178.05;133807;1301;23330;-80
2023/12/16 11:26:31;;;;;;;29.50;14.00;;;;;;;5.82;100.00;102175.61;133791;1301;23234;-78
2023/12/16 11:29:34;;;;;;;28.40;13.10;;;;;;;5.84;100.00;102175.09;133789;1301;22447;-77
2023/12/16 11:32:37;;;;;;;30.70;13.80;;;;;;;5.88;100.00;102173.88;133805;1304;23106;-77
2023/12/16 11:35:48;;;;;;;26.10;12.40;;;;;;;5.92;100.00;102165.92;133811;1301;23181;-79
2023/12/16 11:38:49;;;;;;;29.70;11.90;;;;;;;5.96;100.00;102161.67;133839;1295;23473;-79
2023/12/16 11:41:58;;;;;;;31.60;11.20;;;;;;;5.98;100.00;102153.65;133815;1301;22436;-78
2023/12/16 11:44:59;;;;;;;24.20;11.20;;;;;;;5.97;100.00;102151.41;133811;1301;22383;-77
2023/12/16 11:48:08;;;;;;;23.50;11.40;;;;;;;5.96;100.00;102156.96;133796;1301;24015;-77
2023/12/16 11:51:08;;;;;;;25.30;10.80;;;;;;;5.95;100.00;102158.04;133688;1304;23181;-76
2023/12/16 11:54:13;;;;;;;;;;;;;;;5.97;100.00;102154.77;133779;1301;22442;-82
2023/12/16 11:57:38;;;;;;;20.60;10.70;;;;;;;5.98;100.00;102153.66;133802;1301;23161;-83
2023/12/16 12:01:18;;;;;;;21.60;10.30;;;;;;;6.00;100.00;102152.34;133781;1301;22349;-82
2023/12/16 12:04:39;;;;;;;27.90;10.70;;;;;;;6.03;100.00;102153.02;133752;1301;24550;-83
2023/12/16 12:07:44;;;;;;;24.40;11.40;;;;;;;6.05;100.00;102151.84;133633;1300;22455;-82
2023/12/16 12:10:48;;;;;;;42.90;21.90;;;;;;;6.06;100.00;102145.48;133667;1290;22531;-82
2023/12/16 12:13:56;;;;;;;34.50;14.30;;;;;;;6.08;100.00;102140.23;133795;1304;22336;-83
2023/12/16 12:17:02;;;;;;;29.60;13.50;;;;;;;6.12;100.00;102134.25;133492;1302;22384;-83
2023/12/16 12:20:10;;;;;;;28.00;11.30;;;;;;;6.23;100.00;102129.19;133782;1292;23409;-83
2023/12/16 12:23:15;;;;;;;24.40;10.70;;;;;;;6.38;100.00;102115.34;133754;1302;23065;-82
2023/12/16 12:26:26;;;;;;;19.60;9.80;;;;;;;6.46;100.00;102113.05;133779;1302;23115;-83
2023/12/16 12:29:46;;;;;;;20.50;9.80;;;;;;;6.48;100.00;102119.13;133775;1302;22359;-79
2023/12/16 12:32:48;;;;;;;25.40;12.50;;;;;;;6.50;100.00;102120.58;133756;1308;22455;-83
2023/12/16 12:35:50;;;;;;;25.70;10.00;;;;;;;6.49;100.00;102116.23;133731;1301;22437;-78
2023/12/16 12:38:54;;;;;;;33.10;11.30;;;;;;;6.48;100.00;102109.98;133789;1285;22355;-81
2023/12/16 12:42:03;;;;;;;22.30;8.70;;;;;;;6.49;99.93;102106.02;133766;1301;22370;-81
2023/12/16 12:45:07;;;;;;;21.30;8.20;;;;;;;6.45;99.99;102097.12;133795;1308;23113;-80
2023/12/16 12:48:12;;;;;;;17.00;7.40;;;;;;;6.38;99.86;102101.79;133762;1308;22307;-81
2023/12/16 12:51:16;;;;;;;23.80;8.60;;;;;;;6.28;99.63;102104.13;133782;1304;23129;-81
2023/12/16 12:54:18;;;;;;;18.60;7.80;;;;;;;6.19;99.11;102105.52;133759;1298;22349;-81
2023/12/16 12:57:20;;;;;;;28.60;8.10;;;;;;;6.12;99.15;102109.98;133800;1302;22366;-81
2023/12/16 13:00:21;;;;;;;17.30;7.70;;;;;;;6.07;99.14;102116.42;133805;1301;22238;-80
2023/12/16 13:03:22;;;;;;;18.10;7.30;;;;;;;6.03;99.17;102116.63;133754;1308;22484;-81
2023/12/16 13:06:42;;;;;;;;;;;;;;;6.02;99.29;102117.59;133833;1308;22506;-80
2023/12/16 13:09:44;;;;;;;20.00;7.80;;;;;;;5.97;98.99;102117.86;133774;1301;22409;-80
2023/12/16 13:12:44;;;;;;;;;;;;;;;5.95;99.05;102118.52;133825;1301;23195;-76
2023/12/16 13:15:47;;;;;;;19.10;8.20;;;;;;;5.95;99.43;102111.67;133788;1301;22442;-80
2023/12/16 13:18:52;;;;;;;17.20;7.20;;;;;;;5.98;99.45;102109.05;133790;1301;22428;-81
2023/12/16 13:21:53;;;;;;;18.80;7.70;;;;;;;6.00;99.18;102107.48;133806;1302;22359;-81
2023/12/16 13:25:18;;;;;;;15.50;6.80;;;;;;;6.02;99.00;102104.57;133765;1298;22395;-79
2023/12/16 13:29:18;;;;;;;;;;;;;;;;;;;;;
2023/12/16 13:33:40;;;;;;;;;;;;;;;;;;;;;
2023/12/16 13:36:46;;;;;;;19.50;9.00;;;;;;;5.98;98.46;102089.73;133788;1302;23060;-79
2023/12/16 13:39:53;;;;;;;18.60;8.20;;;;;;;5.96;98.36;102081.93;133661;1302;22913;-79
2023/12/16 13:43:47;;;;;;;;;;;;;;;;;;;;;
2023/12/16 13:47:43;;;;;;;21.90;8.50;;;;;;;5.95;97.98;102077.26;133679;1301;22928;-79
2023/12/16 13:51:29;;;;;;;;;;;;;;;;;;;;;
2023/12/16 13:54:33;;;;;;;17.70;7.50;;;;;;;5.93;97.76;102080.85;133795;1305;22409;-80
2023/12/16 13:57:34;;;;;;;23.10;9.10;;;;;;;5.93;97.50;102078.04;133833;1304;22395;-79
2023/12/16 14:00:35;;;;;;;23.50;7.80;;;;;;;5.92;97.11;102081.96;133802;1301;22464;-79
2023/12/16 14:03:56;;;;;;;19.70;7.80;;;;;;;5.90;96.99;102079.61;133544;1310;22425;-79
2023/12/16 14:07:17;;;;;;;;;;;;;;;5.90;96.81;102083.62;133338;1305;22471;-79
2023/12/16 14:10:18;;;;;;;26.30;11.10;;;;;;;5.89;96.77;102082.84;133322;1305;22608;-80
2023/12/16 14:13:24;;;;;;;24.40;9.40;;;;;;;5.86;96.86;102084.02;133328;1305;22290;-79
2023/12/16 14:16:27;;;;;;;24.40;9.10;;;;;;;5.84;97.02;102085.70;133317;1304;22484;-80
2023/12/16 14:19:29;;;;;;;19.80;10.30;;;;;;;5.82;96.61;102084.06;133315;1304;22944;-81
2023/12/16 14:22:32;;;;;;;19.80;8.70;;;;;;;5.81;96.76;102086.24;133355;1305;22230;-81
2023/12/16 14:25:33;;;;;;;23.10;7.90;;;;;;;5.79;96.85;102080.94;133362;1307;22457;-79
2023/12/16 14:28:37;;;;;;;31.80;8.30;;;;;;;5.77;96.51;102079.26;133372;1311;23537;-80
2023/12/16 14:31:38;;;;;;;19.80;7.70;;;;;;;5.75;96.74;102079.55;133339;1305;23431;-78
2023/12/16 14:34:39;;;;;;;19.30;7.50;;;;;;;5.74;96.40;102076.47;133356;1298;22584;-79
2023/12/16 14:37:40;;;;;;;;;;;;;;;5.72;96.44;102079.56;133402;1304;22544;-80
2023/12/16 14:49:20;;;;;;;18.60;8.10;;;;;;;5.64;96.19;102075.29;133806;1304;22398;-81
2023/12/16 14:52:21;;;;;;;19.10;8.50;;;;;;;5.63;96.08;102074.47;133659;1308;22400;-80
2023/12/16 14:55:23;;;;;;;;;;;;;;;5.62;95.78;102073.30;133777;1307;22537;-80
2023/12/16 14:58:27;;;;;;;31.70;16.80;;;;;;;5.60;95.67;102072.88;133686;1308;22221;-80
2023/12/16 15:01:28;;;;;;;35.60;20.70;;;;;;;5.58;95.63;102070.89;133805;1305;22510;-82
2023/12/16 15:04:30;;;;;;;37.20;18.70;;;;;;;5.55;95.49;102068.95;133800;1301;22394;-81
2023/12/16 15:07:33;;;;;;;42.50;21.70;;;;;;;5.50;95.26;102063.45;133787;1301;24008;-79
2023/12/16 15:10:34;;;;;;;71.40;36.30;;;;;;;5.41;95.19;102059.40;133850;1302;22362;-79